Pierre Regional Airport
KPIR : rendu visible

Aérodrome :











RETROUVEZ-NOUS SUR...

 
LOGIN :

S'inscrire | Disclaimer

   EN    FR    IT 

 









Légende :    VFR   VFR Marginal   IFR   IFR Intensif   IFR Très Intensif
Visi : 
Plafond : 
>= 8 km
>= 3000ft
5 à 8 km
1000 à 3000 ft
1500m à 5 km
500 à 1000 ft
800 à 1500m
200 à 500 ft
< 800m
< 200 ft
Symboles :   Orages  Brouillard  Fortes neiges  Fortes précipitations  Vent > 20 kt






- Altitude de l'aérodrome : 1744 ft
- Code IATA : PIR


KPIR - Pierre Regional

DERNIER METAR :
  • 312053Z AUTO 14016G22KT 10SM SCT040 24/17 A2991 RMK AO2 PK WND 14027/2019 SLP120 T02440167 56023

METARs EXPIRÉS :
  • 311953Z AUTO 13017G27KT 10SM FEW037 24/16 A2992 RMK AO2 PK WND 15027/1950 SLP126 T02440161
  • 311853Z AUTO 14014G25KT 10SM FEW033 23/16 A2995 RMK AO2 SLP136 T02280156
  • 311810Z AUTO 14017G23KT 10SM BKN030 22/15 A2997 RMK AO2 T02220150
  • 311753Z AUTO 14017G24KT 10SM BKN029 22/15 A2998 RMK AO2 SLP145 T02170150 10217 20128 58020

TAF KPIR
Valide du 31 à 20h jusqu'au 01 à 18h UTC


311936Z 3120/0118 14014G25KT P6SM FEW035
FM010600 14009KT P6SM SCT250 WS020/21030KT
FM011600 31010G16KT P6SM SKC
FIR KZMP / Amérique du Nord



MET'MAP, la Météo Aéronautique d'un coup d'oeil ! - Copyright ORBIFLY Décembre 2007 - Disclaimer

ORBIFLY MET'MAP TEAM :

Programmation & Développement : Alexandra Zaïnal
Sur une idée originale de : Baudouin d'Aumeries
Assistance à la programmation : Marc-Olivier Méhu
Soutien technique & logistique : Manuel Goepfert

Contact : metmap@orbifly.com




SOURCES & CREDITS :

   NOAA       Earth
Advisory